Flight Track Log - Related Links

Times and Time Zones

All times are in EDT time to prevent confusion due to time zone crossing. See the AWE1600 flight status page for this flight to view local times or setup timezone preferences in your user account.

Time Position Orientation Groundspeed Altitude Reporting Facility
EDT Latitude Longitude Course Direction KTS MPH feet Rate Location/Type
Wed 09:30:30 AM 39.8667 -75.2636 270° West 173 199 900  Level FAA TRACON SMA TRACON (SMA)
Wed 09:30:47 AM 39.8633 -75.2806 256° West 169 194 1,600 2,595 Climbing FAA TRACON SMA TRACON (SMA)
Wed 09:31:07 AM 39.8578 -75.3025 252° West 189 217 2,500 2,850 Climbing FAA TRACON SMA TRACON (SMA)
Wed 09:31:27 AM 39.8531 -75.3269 256° West 198 228 3,500 2,700 Climbing FAA TRACON SMA TRACON (SMA)
Wed 09:31:47 AM 39.8489 -75.3486 256° West 206 237 4,300 2,850 Climbing FAA TRACON SMA TRACON (SMA)
Wed 09:32:07 AM 39.8422 -75.3800 255° West 236 272 5,400 2,850 Climbing FAA TRACON SMA TRACON (SMA)
Wed 09:32:27 AM 39.8431 -75.4089 272° West 254 292 6,200 3,000 Climbing FAA TRACON SMA TRACON (SMA)
Wed 09:32:47 AM 39.8461 -75.4369 278° West 255 293 7,400 4,200 Climbing FAA TRACON SMA TRACON (SMA)
Wed 09:33:00 AM 39.9000 -75.5898 270° West  Level FlightAware Approximate
Wed 09:33:07 AM 39.8483 -75.4692 275° West 257 296 9,000  Level FAA TRACON SMA TRACON (SMA)
Wed 09:33:27 AM 39.8519 -75.5003 279° West 253 291 10,000 1,650 Climbing FAA TRACON SMA TRACON (SMA)
Wed 09:33:47 AM 39.8553 -75.5308 278° West 267 307 10,100 150 Climbing FAA TRACON SMA TRACON (SMA)
Wed 09:34:00 AM 39.9097 -75.7085 258° West  Level FlightAware Approximate
Wed 09:34:07 AM 39.8586 -75.5708 276° West 339 390 10,100  Level FAA TRACON SMA TRACON (SMA)
Wed 09:34:27 AM 39.8619 -75.6142 276° West 336 387 10,100  Level FAA TRACON SMA TRACON (SMA)
Wed 09:34:47 AM 39.8647 -75.6514 276° West 337 388 10,100 1,050 Level FAA TRACON SMA TRACON (SMA)
Wed 09:35:00 AM 39.9000 -75.8303 270° West  Level FlightAware Approximate
Wed 09:35:07 AM 39.8683 -75.6969 276° West 338 389 10,800  Level FAA TRACON SMA TRACON (SMA)
Wed 09:35:27 AM 39.8714 -75.7350 276° West 340 391 12,100 4,308 Climbing FAA TRACON SMA TRACON (SMA)
Wed 09:35:46 AM 39.8744 -75.7736 276° West 339 390 13,600 4,000 Climbing FAA TRACON SMA TRACON (SMA)
Wed 09:36:06 AM 39.8772 -75.8100 276° West 333 383 14,700 3,300 Climbing FAA TRACON SMA TRACON (SMA)
Wed 09:36:26 AM 39.8808 -75.8558 276° West 332 382 15,800 2,850 Climbing FAA TRACON SMA TRACON (SMA)
Wed 09:36:46 AM 39.8831 -75.8922 275° West 332 382 16,600 2,850 Climbing FAA TRACON SMA TRACON (SMA)
Wed 09:37:06 AM 39.8867 -75.9303 277° West 336 387 17,700 2,100 Climbing FAA TRACON SMA TRACON (SMA)
Wed 09:37:26 AM 39.8886 -75.9572 275° West 336 387 18,000 450 Climbing FAA TRACON SMA TRACON (SMA)
Wed 09:37:46 AM 39.8886 -75.9572 303° West 336 387 18,000 2,308 Level FAA TRACON SMA TRACON (SMA)
Wed 09:39:23 AM 39.9114 -76.2000 277° West 357 411 22,500 2,654 Climbing New York Center
Wed 09:40:22 AM 39.9128 -76.3489 271° West 370 426 24,900 2,100 Climbing New York Center
Wed 09:41:23 AM 39.9167 -76.4872 272° West 376 433 26,700 1,785 Climbing New York Center
Wed 09:42:23 AM 39.9244 -76.6261 274° West 386 444 28,500 1,785 Climbing New York Center
Wed 09:43:24 AM 39.9381 -76.7681 277° West 392 451 30,300 1,678 Climbing New York Center
Wed 09:44:21 AM 39.9642 -76.9083 284° West 392 451 31,800 1,714 Climbing New York Center
Wed 09:45:23 AM 39.9903 -77.0489 284° West 398 458 33,700 1,623 Climbing New York Center
Wed 09:46:23 AM 40.0078 -77.1861 279° West 391 450 35,100 1,140 Climbing New York Center
Wed 09:47:24 AM 40.0183 -77.3389 275° West 391 450 36,000 377 Climbing New York Center
Wed 09:49:02 AM 40.0350 -77.5514 276° West 401 461 36,100 456 Climbing Cleveland Center
Wed 09:50:02 AM 40.0428 -77.6894 274° West 391 450 37,200 800 Climbing Cleveland Center
Wed 09:51:02 AM 40.0547 -77.8272 277° West 386 444 37,700 400 Climbing Cleveland Center
Wed 09:52:02 AM 40.0642 -77.9706 275° West 386 444 38,000 150 Climbing Cleveland Center
Wed 09:53:02 AM 40.0739 -78.1169 275° West 396 456 38,000  Level Cleveland Center
Wed 09:54:02 AM 40.0850 -78.2575 276° West 401 461 38,000  Level Cleveland Center
Wed 09:55:02 AM 40.1047 -78.4008 280° West 409 471 38,000  Level Cleveland Center
Wed 09:56:02 AM 40.1364 -78.5356 287° West 404 465 38,000  Level Cleveland Center
Wed 09:57:02 AM 40.1700 -78.6675 288° West 392 451 38,000  Level Cleveland Center
Wed 09:58:02 AM 40.2033 -78.7972 289° West 387 445 38,000  Level Cleveland Center
Wed 09:59:02 AM 40.2344 -78.9214 288° West 374 430 38,000  Level Cleveland Center
Wed 10:00:02 AM 40.2675 -79.0483 289° West 369 425 38,000 -300 Level Cleveland Center
Wed 10:01:02 AM 40.2983 -79.1811 287° West 369 425 37,400 -800 Descending Cleveland Center
Wed 10:02:02 AM 40.3353 -79.3194 289° West 369 425 36,400 -1,000 Descending Cleveland Center
Wed 10:03:02 AM 40.3700 -79.4494 289° West 374 430 35,400 -1,000 Descending Cleveland Center
Wed 10:04:02 AM 40.4047 -79.5797 289° West 379 436 34,400 -1,000 Descending Cleveland Center
Wed 10:05:02 AM 40.4369 -79.7156 287° West 384 442 33,400 -1,000 Descending Cleveland Center
Wed 10:06:02 AM 40.4692 -79.8517 287° West 384 442 32,400 -1,000 Descending Cleveland Center
Wed 10:07:02 AM 40.5014 -79.9906 287° West 389 448 31,400 -950 Descending Cleveland Center
Wed 10:08:02 AM 40.5269 -80.1186 285° West 400 460 30,500 -700 Descending Cleveland Center
Wed 10:09:02 AM 40.5586 -80.2553 287° West 400 460 30,000 -250 Descending Cleveland Center
Wed 10:10:02 AM 40.5944 -80.3889 289° West 390 449 30,000  Level Cleveland Center
Wed 10:11:02 AM 40.6425 -80.5147 297° West 390 449 30,000  Level Cleveland Center
Wed 10:12:02 AM 40.7008 -80.6297 304° West 383 441 30,000  Level Cleveland Center
Wed 10:13:02 AM 40.7633 -80.7475 305° West 388 447 30,000  Level Cleveland Center
Wed 10:14:02 AM 40.8214 -80.8658 303° West 388 447 30,000  Level Cleveland Center
Wed 10:15:02 AM 40.8814 -80.9894 303° West 393 452 30,000  Level Cleveland Center
Wed 10:16:02 AM 40.9414 -81.1219 301° West 401 461 30,000  Level Cleveland Center
Wed 10:17:02 AM 41.0011 -81.2433 303° West 401 461 30,000  Level Cleveland Center
Wed 10:18:02 AM 41.0589 -81.3653 302° West 396 456 30,000 -500 Level Cleveland Center
Wed 10:19:02 AM 41.1142 -81.4844 302° West 389 448 29,000 -950 Descending Cleveland Center
Wed 10:20:02 AM 41.1697 -81.5872 306° West 389 448 28,100 -950 Descending Cleveland Center
Wed 10:21:02 AM 41.2250 -81.7039 302° West 389 448 27,100 -1,000 Descending Cleveland Center
Wed 10:22:02 AM 41.2800 -81.8208 302° West 384 442 26,100 -1,000 Descending Cleveland Center
Wed 10:23:02 AM 41.3369 -81.9383 303° West 384 442 25,100 -1,000 Descending Cleveland Center
Wed 10:24:02 AM 41.3897 -82.0611 300° West 384 442 24,100 -1,050 Descending Cleveland Center
Wed 10:25:02 AM 41.4483 -82.1869 302° West 384 442 23,000 -1,700 Descending Cleveland Center
Wed 10:26:02 AM 41.5031 -82.3022 302° West 379 436 20,700 -2,350 Descending Cleveland Center
Wed 10:27:02 AM 41.5556 -82.4117 303° West 366 421 18,300 -2,106 Descending Cleveland Center
Wed 10:27:36 AM 41.5839 -82.4708 303° West 356 410 17,400 -1,800 Descending Cleveland Center
Wed 10:28:02 AM 41.6058 -82.5242 299° West 361 415 16,500 -2,137 Descending Cleveland Center
Wed 10:28:49 AM 41.6461 -82.6089 302° West 338 389 14,800 -2,033 Descending Cleveland Center
Wed 10:30:03 AM 41.7042 -82.7358 302° West 324 373 12,400 -1,444 Descending Cleveland Center
Wed 10:31:02 AM 41.7608 -82.8211 312° West 328 377 11,600 -1,008 Descending Cleveland Center
Wed 10:32:02 AM 41.8239 -82.9014 317° Northwest 316 364 10,400 -1,119 Descending Cleveland Center
Wed 10:33:00 AM 41.8681 -82.9811 307° West 254 292 9,400 -1,450 Descending Cleveland Center
Wed 10:34:02 AM 41.9083 -83.0581 305° West 256 295 7,500 -1,672 Descending Cleveland Center
Wed 10:35:02 AM 41.9436 -83.1517 297° West 276 318 6,000 -750 Descending Cleveland Center
Wed 10:36:02 AM 41.9689 -83.2308 293° West 269 310 6,000 -700 Level Cleveland Center
Wed 10:37:02 AM 41.9983 -83.3158 295° West 249 287 4,600 -1,400 Descending Cleveland Center

Login

Don't have an account? Register now (free) for customized features, flight alerts, and more!